sensor_id;sensor_type;location;lat;lon;timestamp;P1;durP1;ratioP1;P2;durP2;ratioP2
23608;SDS011;11982;50.810;4.442;2022-10-16T00:01:29;6.05;;;1.45;;
23608;SDS011;11982;50.810;4.442;2022-10-16T00:03:56;5.60;;;1.90;;
23608;SDS011;11982;50.810;4.442;2022-10-16T00:06:23;5.38;;;1.42;;
23608;SDS011;11982;50.810;4.442;2022-10-16T00:08:50;4.57;;;1.38;;
23608;SDS011;11982;50.810;4.442;2022-10-16T00:11:17;2.47;;;1.30;;
23608;SDS011;11982;50.810;4.442;2022-10-16T00:13:48;2.00;;;1.27;;
23608;SDS011;11982;50.810;4.442;2022-10-16T00:16:16;1.92;;;1.55;;
23608;SDS011;11982;50.810;4.442;2022-10-16T00:18:41;3.08;;;1.52;;
23608;SDS011;11982;50.810;4.442;2022-10-16T00:21:08;4.35;;;1.52;;
23608;SDS011;11982;50.810;4.442;2022-10-16T00:23:39;3.10;;;1.27;;
23608;SDS011;11982;50.810;4.442;2022-10-16T00:26:06;6.00;;;1.27;;
23608;SDS011;11982;50.810;4.442;2022-10-16T00:28:33;3.13;;;1.30;;
23608;SDS011;11982;50.810;4.442;2022-10-16T00:31:02;3.88;;;1.38;;
23608;SDS011;11982;50.810;4.442;2022-10-16T00:33:29;2.15;;;1.40;;
23608;SDS011;11982;50.810;4.442;2022-10-16T00:35:57;2.67;;;1.35;;
23608;SDS011;11982;50.810;4.442;2022-10-16T00:38:23;3.42;;;1.40;;
23608;SDS011;11982;50.810;4.442;2022-10-16T00:40:49;3.88;;;1.50;;
23608;SDS011;11982;50.810;4.442;2022-10-16T00:43:36;2.90;;;1.30;;
23608;SDS011;11982;50.810;4.442;2022-10-16T00:46:23;1.67;;;1.30;;
23608;SDS011;11982;50.810;4.442;2022-10-16T00:49:07;2.47;;;1.50;;
23608;SDS011;11982;50.810;4.442;2022-10-16T00:51:40;4.45;;;1.42;;
23608;SDS011;11982;50.810;4.442;2022-10-16T00:54:09;3.13;;;1.80;;
23608;SDS011;11982;50.810;4.442;2022-10-16T00:56:40;4.35;;;1.52;;
23608;SDS011;11982;50.810;4.442;2022-10-16T00:59:09;6.38;;;1.75;;
23608;SDS011;11982;50.810;4.442;2022-10-16T01:01:42;4.10;;;1.65;;
23608;SDS011;11982;50.810;4.442;2022-10-16T01:04:08;7.05;;;1.80;;
23608;SDS011;11982;50.810;4.442;2022-10-16T01:06:39;3.35;;;1.70;;
23608;SDS011;11982;50.810;4.442;2022-10-16T01:12:14;3.55;;;1.60;;
23608;SDS011;11982;50.810;4.442;2022-10-16T01:14:54;4.43;;;1.60;;
23608;SDS011;11982;50.810;4.442;2022-10-16T01:17:53;5.22;;;2.00;;
23608;SDS011;11982;50.810;4.442;2022-10-16T01:20:26;7.18;;;1.95;;
23608;SDS011;11982;50.810;4.442;2022-10-16T01:25:59;5.50;;;2.22;;
23608;SDS011;11982;50.810;4.442;2022-10-16T01:31:24;5.03;;;1.90;;
23608;SDS011;11982;50.810;4.442;2022-10-16T01:33:57;3.70;;;2.10;;
23608;SDS011;11982;50.810;4.442;2022-10-16T01:36:33;5.20;;;1.98;;
23608;SDS011;11982;50.810;4.442;2022-10-16T01:39:04;10.63;;;2.00;;
23608;SDS011;11982;50.810;4.442;2022-10-16T01:41:34;4.25;;;2.13;;
23608;SDS011;11982;50.810;4.442;2022-10-16T01:44:09;6.50;;;1.90;;
23608;SDS011;11982;50.810;4.442;2022-10-16T01:46:39;5.45;;;2.00;;
23608;SDS011;11982;50.810;4.442;2022-10-16T01:49:07;8.32;;;2.30;;
23608;SDS011;11982;50.810;4.442;2022-10-16T01:51:35;8.43;;;2.60;;
23608;SDS011;11982;50.810;4.442;2022-10-16T01:54:02;9.35;;;1.80;;
23608;SDS011;11982;50.810;4.442;2022-10-16T01:56:32;6.82;;;2.50;;
23608;SDS011;11982;50.810;4.442;2022-10-16T01:59:01;4.88;;;2.08;;
23608;SDS011;11982;50.810;4.442;2022-10-16T02:01:31;3.72;;;2.00;;
23608;SDS011;11982;50.810;4.442;2022-10-16T02:04:01;5.20;;;2.00;;
23608;SDS011;11982;50.810;4.442;2022-10-16T02:06:35;5.88;;;1.75;;
23608;SDS011;11982;50.810;4.442;2022-10-16T02:09:01;11.95;;;2.25;;
23608;SDS011;11982;50.810;4.442;2022-10-16T02:11:26;3.75;;;2.42;;
23608;SDS011;11982;50.810;4.442;2022-10-16T02:13:55;6.97;;;2.08;;
23608;SDS011;11982;50.810;4.442;2022-10-16T02:16:32;5.77;;;2.10;;
23608;SDS011;11982;50.810;4.442;2022-10-16T02:19:01;4.05;;;2.30;;
23608;SDS011;11982;50.810;4.442;2022-10-16T02:29:42;8.27;;;2.60;;
23608;SDS011;11982;50.810;4.442;2022-10-16T02:32:19;5.85;;;2.50;;
23608;SDS011;11982;50.810;4.442;2022-10-16T02:34:48;6.90;;;2.22;;
23608;SDS011;11982;50.810;4.442;2022-10-16T02:37:16;5.13;;;2.42;;
23608;SDS011;11982;50.810;4.442;2022-10-16T02:39:42;4.78;;;2.55;;
23608;SDS011;11982;50.810;4.442;2022-10-16T02:42:12;3.80;;;2.63;;
23608;SDS011;11982;50.810;4.442;2022-10-16T02:44:38;4.63;;;2.55;;
23608;SDS011;11982;50.810;4.442;2022-10-16T02:47:04;3.45;;;2.50;;
23608;SDS011;11982;50.810;4.442;2022-10-16T02:49:30;9.00;;;3.40;;
23608;SDS011;11982;50.810;4.442;2022-10-16T02:51:55;8.27;;;2.85;;
23608;SDS011;11982;50.810;4.442;2022-10-16T02:54:21;8.25;;;2.58;;
23608;SDS011;11982;50.810;4.442;2022-10-16T02:56:46;7.28;;;2.63;;
23608;SDS011;11982;50.810;4.442;2022-10-16T02:59:12;6.78;;;2.65;;
23608;SDS011;11982;50.810;4.442;2022-10-16T03:01:38;7.13;;;2.60;;
23608;SDS011;11982;50.810;4.442;2022-10-16T03:04:03;7.57;;;3.17;;
23608;SDS011;11982;50.810;4.442;2022-10-16T03:06:29;4.88;;;2.85;;
23608;SDS011;11982;50.810;4.442;2022-10-16T03:08:54;4.72;;;2.35;;
23608;SDS011;11982;50.810;4.442;2022-10-16T03:11:20;6.90;;;2.70;;
23608;SDS011;11982;50.810;4.442;2022-10-16T03:13:45;4.88;;;2.80;;
23608;SDS011;11982;50.810;4.442;2022-10-16T03:16:11;6.15;;;2.78;;
23608;SDS011;11982;50.810;4.442;2022-10-16T03:18:36;9.18;;;3.20;;
23608;SDS011;11982;50.810;4.442;2022-10-16T03:21:02;8.23;;;2.80;;
23608;SDS011;11982;50.810;4.442;2022-10-16T03:23:28;6.28;;;2.65;;
23608;SDS011;11982;50.810;4.442;2022-10-16T03:25:53;7.45;;;2.80;;
23608;SDS011;11982;50.810;4.442;2022-10-16T03:28:19;5.53;;;2.40;;
23608;SDS011;11982;50.810;4.442;2022-10-16T03:30:45;7.53;;;2.67;;
23608;SDS011;11982;50.810;4.442;2022-10-16T03:33:10;7.72;;;2.60;;
23608;SDS011;11982;50.810;4.442;2022-10-16T03:35:36;8.45;;;3.08;;
23608;SDS011;11982;50.810;4.442;2022-10-16T03:38:02;6.93;;;2.85;;
23608;SDS011;11982;50.810;4.442;2022-10-16T03:40:27;5.72;;;2.90;;
23608;SDS011;11982;50.810;4.442;2022-10-16T03:42:53;5.82;;;2.55;;
23608;SDS011;11982;50.810;4.442;2022-10-16T03:45:22;9.32;;;2.90;;
23608;SDS011;11982;50.810;4.442;2022-10-16T03:47:48;8.07;;;3.08;;
23608;SDS011;11982;50.810;4.442;2022-10-16T03:50:14;8.73;;;3.20;;
23608;SDS011;11982;50.810;4.442;2022-10-16T03:52:39;5.20;;;2.60;;
23608;SDS011;11982;50.810;4.442;2022-10-16T03:55:05;7.10;;;2.90;;
23608;SDS011;11982;50.810;4.442;2022-10-16T03:57:31;8.07;;;2.90;;
23608;SDS011;11982;50.810;4.442;2022-10-16T03:59:57;7.03;;;3.10;;
23608;SDS011;11982;50.810;4.442;2022-10-16T04:02:22;7.95;;;2.97;;
23608;SDS011;11982;50.810;4.442;2022-10-16T04:04:48;8.93;;;3.38;;
23608;SDS011;11982;50.810;4.442;2022-10-16T04:07:14;6.10;;;2.63;;
23608;SDS011;11982;50.810;4.442;2022-10-16T04:09:39;9.40;;;2.88;;
23608;SDS011;11982;50.810;4.442;2022-10-16T04:12:05;7.75;;;3.10;;
23608;SDS011;11982;50.810;4.442;2022-10-16T04:14:30;5.68;;;2.65;;
23608;SDS011;11982;50.810;4.442;2022-10-16T04:16:56;4.82;;;2.72;;
23608;SDS011;11982;50.810;4.442;2022-10-16T04:19:21;8.18;;;2.92;;
23608;SDS011;11982;50.810;4.442;2022-10-16T04:21:47;11.00;;;3.50;;
23608;SDS011;11982;50.810;4.442;2022-10-16T04:24:12;8.57;;;2.97;;
23608;SDS011;11982;50.810;4.442;2022-10-16T04:26:38;5.68;;;2.50;;
23608;SDS011;11982;50.810;4.442;2022-10-16T04:29:04;7.50;;;2.80;;
23608;SDS011;11982;50.810;4.442;2022-10-16T04:31:31;13.88;;;2.90;;
23608;SDS011;11982;50.810;4.442;2022-10-16T04:33:56;6.45;;;2.63;;
23608;SDS011;11982;50.810;4.442;2022-10-16T04:36:22;3.90;;;2.28;;
23608;SDS011;11982;50.810;4.442;2022-10-16T04:38:47;6.22;;;2.83;;
23608;SDS011;11982;50.810;4.442;2022-10-16T04:41:13;5.82;;;2.70;;
23608;SDS011;11982;50.810;4.442;2022-10-16T04:43:38;8.32;;;2.90;;
23608;SDS011;11982;50.810;4.442;2022-10-16T04:46:04;5.47;;;2.50;;
23608;SDS011;11982;50.810;4.442;2022-10-16T04:48:30;6.20;;;2.30;;
23608;SDS011;11982;50.810;4.442;2022-10-16T04:50:56;9.95;;;3.33;;
23608;SDS011;11982;50.810;4.442;2022-10-16T04:53:22;7.90;;;2.45;;
23608;SDS011;11982;50.810;4.442;2022-10-16T04:55:48;7.15;;;2.70;;
23608;SDS011;11982;50.810;4.442;2022-10-16T04:58:13;6.15;;;3.25;;
23608;SDS011;11982;50.810;4.442;2022-10-16T05:00:39;17.02;;;3.58;;
23608;SDS011;11982;50.810;4.442;2022-10-16T05:03:05;7.55;;;2.90;;
23608;SDS011;11982;50.810;4.442;2022-10-16T05:05:33;9.48;;;3.22;;
23608;SDS011;11982;50.810;4.442;2022-10-16T05:07:59;8.07;;;3.33;;
23608;SDS011;11982;50.810;4.442;2022-10-16T05:10:25;7.22;;;3.20;;
23608;SDS011;11982;50.810;4.442;2022-10-16T05:12:50;8.90;;;3.13;;
23608;SDS011;11982;50.810;4.442;2022-10-16T05:15:16;7.13;;;3.10;;
23608;SDS011;11982;50.810;4.442;2022-10-16T05:17:42;7.13;;;3.22;;
23608;SDS011;11982;50.810;4.442;2022-10-16T05:20:08;7.18;;;3.50;;
23608;SDS011;11982;50.810;4.442;2022-10-16T05:22:33;7.32;;;3.63;;
23608;SDS011;11982;50.810;4.442;2022-10-16T05:24:59;7.90;;;3.28;;
23608;SDS011;11982;50.810;4.442;2022-10-16T05:27:25;11.18;;;3.15;;
23608;SDS011;11982;50.810;4.442;2022-10-16T05:29:50;6.63;;;3.10;;
23608;SDS011;11982;50.810;4.442;2022-10-16T05:32:16;7.65;;;3.22;;
23608;SDS011;11982;50.810;4.442;2022-10-16T05:34:43;6.40;;;3.30;;
23608;SDS011;11982;50.810;4.442;2022-10-16T05:37:08;6.22;;;3.42;;
23608;SDS011;11982;50.810;4.442;2022-10-16T05:39:34;9.95;;;3.22;;
23608;SDS011;11982;50.810;4.442;2022-10-16T05:42:01;12.50;;;3.97;;
23608;SDS011;11982;50.810;4.442;2022-10-16T05:44:27;11.77;;;3.97;;
23608;SDS011;11982;50.810;4.442;2022-10-16T05:46:53;7.97;;;3.80;;
23608;SDS011;11982;50.810;4.442;2022-10-16T05:49:18;6.38;;;3.70;;
23608;SDS011;11982;50.810;4.442;2022-10-16T05:51:44;5.95;;;3.60;;
23608;SDS011;11982;50.810;4.442;2022-10-16T05:54:09;10.63;;;3.90;;
23608;SDS011;11982;50.810;4.442;2022-10-16T05:56:35;7.53;;;3.83;;
23608;SDS011;11982;50.810;4.442;2022-10-16T05:59:02;13.48;;;3.90;;
23608;SDS011;11982;50.810;4.442;2022-10-16T06:01:29;11.38;;;4.30;;
23608;SDS011;11982;50.810;4.442;2022-10-16T06:03:55;9.57;;;4.15;;
23608;SDS011;11982;50.810;4.442;2022-10-16T06:06:22;6.43;;;3.83;;
23608;SDS011;11982;50.810;4.442;2022-10-16T06:08:51;13.30;;;4.63;;
23608;SDS011;11982;50.810;4.442;2022-10-16T06:11:18;12.25;;;4.50;;
23608;SDS011;11982;50.810;4.442;2022-10-16T06:13:48;7.63;;;4.65;;
23608;SDS011;11982;50.810;4.442;2022-10-16T06:16:15;8.38;;;4.28;;
23608;SDS011;11982;50.810;4.442;2022-10-16T06:18:40;8.77;;;4.45;;
23608;SDS011;11982;50.810;4.442;2022-10-16T06:21:16;9.77;;;4.30;;
23608;SDS011;11982;50.810;4.442;2022-10-16T06:23:43;10.35;;;4.70;;
23608;SDS011;11982;50.810;4.442;2022-10-16T06:26:11;10.68;;;4.53;;
23608;SDS011;11982;50.810;4.442;2022-10-16T06:28:39;10.10;;;4.70;;
23608;SDS011;11982;50.810;4.442;2022-10-16T06:31:05;11.80;;;3.70;;
23608;SDS011;11982;50.810;4.442;2022-10-16T06:33:32;7.07;;;3.88;;
23608;SDS011;11982;50.810;4.442;2022-10-16T06:36:04;9.15;;;4.03;;
23608;SDS011;11982;50.810;4.442;2022-10-16T06:38:30;11.27;;;5.15;;
23608;SDS011;11982;50.810;4.442;2022-10-16T06:40:57;11.38;;;4.50;;
23608;SDS011;11982;50.810;4.442;2022-10-16T06:43:23;14.18;;;4.85;;
23608;SDS011;11982;50.810;4.442;2022-10-16T06:45:52;9.25;;;4.63;;
23608;SDS011;11982;50.810;4.442;2022-10-16T06:48:18;11.35;;;5.10;;
23608;SDS011;11982;50.810;4.442;2022-10-16T06:50:54;8.90;;;4.22;;
23608;SDS011;11982;50.810;4.442;2022-10-16T06:53:28;10.63;;;4.30;;
23608;SDS011;11982;50.810;4.442;2022-10-16T06:55:55;10.60;;;3.88;;
23608;SDS011;11982;50.810;4.442;2022-10-16T06:58:21;8.40;;;3.90;;
23608;SDS011;11982;50.810;4.442;2022-10-16T07:00:47;13.63;;;4.07;;
23608;SDS011;11982;50.810;4.442;2022-10-16T07:03:14;9.10;;;4.22;;
23608;SDS011;11982;50.810;4.442;2022-10-16T07:05:40;11.00;;;3.10;;
23608;SDS011;11982;50.810;4.442;2022-10-16T07:08:06;9.15;;;3.72;;
23608;SDS011;11982;50.810;4.442;2022-10-16T07:10:32;5.75;;;3.10;;
23608;SDS011;11982;50.810;4.442;2022-10-16T07:12:58;6.75;;;3.00;;
23608;SDS011;11982;50.810;4.442;2022-10-16T07:15:24;6.50;;;2.78;;
23608;SDS011;11982;50.810;4.442;2022-10-16T07:17:50;9.25;;;3.53;;
23608;SDS011;11982;50.810;4.442;2022-10-16T07:20:16;7.38;;;3.20;;
23608;SDS011;11982;50.810;4.442;2022-10-16T07:22:41;7.15;;;3.50;;
23608;SDS011;11982;50.810;4.442;2022-10-16T07:25:07;7.45;;;3.00;;
23608;SDS011;11982;50.810;4.442;2022-10-16T07:27:33;10.00;;;3.35;;
23608;SDS011;11982;50.810;4.442;2022-10-16T07:29:59;11.50;;;3.65;;
23608;SDS011;11982;50.810;4.442;2022-10-16T07:32:24;6.00;;;3.10;;
23608;SDS011;11982;50.810;4.442;2022-10-16T07:34:50;6.20;;;2.90;;
23608;SDS011;11982;50.810;4.442;2022-10-16T07:37:16;7.63;;;2.90;;
23608;SDS011;11982;50.810;4.442;2022-10-16T07:39:42;5.80;;;2.70;;
23608;SDS011;11982;50.810;4.442;2022-10-16T07:42:08;9.98;;;3.05;;
23608;SDS011;11982;50.810;4.442;2022-10-16T07:44:33;8.57;;;3.00;;
23608;SDS011;11982;50.810;4.442;2022-10-16T07:46:59;8.38;;;2.75;;
23608;SDS011;11982;50.810;4.442;2022-10-16T07:49:25;4.68;;;2.58;;
23608;SDS011;11982;50.810;4.442;2022-10-16T07:51:50;8.55;;;3.13;;
23608;SDS011;11982;50.810;4.442;2022-10-16T07:54:16;5.45;;;2.50;;
23608;SDS011;11982;50.810;4.442;2022-10-16T07:56:42;5.80;;;2.58;;
23608;SDS011;11982;50.810;4.442;2022-10-16T07:59:07;8.32;;;2.85;;
23608;SDS011;11982;50.810;4.442;2022-10-16T08:01:33;5.85;;;2.20;;
23608;SDS011;11982;50.810;4.442;2022-10-16T08:03:59;6.97;;;2.30;;
23608;SDS011;11982;50.810;4.442;2022-10-16T08:06:24;5.38;;;2.08;;
23608;SDS011;11982;50.810;4.442;2022-10-16T08:08:50;6.10;;;1.90;;
23608;SDS011;11982;50.810;4.442;2022-10-16T08:11:15;12.38;;;2.50;;
23608;SDS011;11982;50.810;4.442;2022-10-16T08:13:41;9.73;;;2.30;;
23608;SDS011;11982;50.810;4.442;2022-10-16T08:16:07;8.75;;;2.20;;
23608;SDS011;11982;50.810;4.442;2022-10-16T08:18:35;9.95;;;1.95;;
23608;SDS011;11982;50.810;4.442;2022-10-16T08:21:01;9.30;;;1.98;;
23608;SDS011;11982;50.810;4.442;2022-10-16T08:23:27;7.57;;;2.10;;
23608;SDS011;11982;50.810;4.442;2022-10-16T08:25:54;5.03;;;1.98;;
23608;SDS011;11982;50.810;4.442;2022-10-16T08:28:20;7.43;;;1.83;;
23608;SDS011;11982;50.810;4.442;2022-10-16T08:30:46;11.35;;;2.80;;
23608;SDS011;11982;50.810;4.442;2022-10-16T08:33:12;6.38;;;1.73;;
23608;SDS011;11982;50.810;4.442;2022-10-16T08:35:38;6.25;;;1.92;;
23608;SDS011;11982;50.810;4.442;2022-10-16T08:38:04;8.20;;;2.13;;
23608;SDS011;11982;50.810;4.442;2022-10-16T08:40:31;9.30;;;2.22;;
23608;SDS011;11982;50.810;4.442;2022-10-16T08:43:06;5.93;;;1.70;;
23608;SDS011;11982;50.810;4.442;2022-10-16T08:50:49;6.93;;;1.60;;
23608;SDS011;11982;50.810;4.442;2022-10-16T08:56:13;9.27;;;2.22;;
23608;SDS011;11982;50.810;4.442;2022-10-16T08:58:39;4.95;;;2.22;;
23608;SDS011;11982;50.810;4.442;2022-10-16T09:01:10;5.22;;;1.95;;
23608;SDS011;11982;50.810;4.442;2022-10-16T09:17:12;7.47;;;1.60;;
23608;SDS011;11982;50.810;4.442;2022-10-16T09:20:03;5.50;;;1.48;;
23608;SDS011;11982;50.810;4.442;2022-10-16T09:22:35;6.78;;;2.03;;
23608;SDS011;11982;50.810;4.442;2022-10-16T09:25:01;5.78;;;1.73;;
23608;SDS011;11982;50.810;4.442;2022-10-16T09:27:36;7.32;;;1.80;;
23608;SDS011;11982;50.810;4.442;2022-10-16T09:30:10;7.57;;;2.00;;
23608;SDS011;11982;50.810;4.442;2022-10-16T09:35:04;5.95;;;1.60;;
23608;SDS011;11982;50.810;4.442;2022-10-16T09:38:00;8.93;;;2.10;;
23608;SDS011;11982;50.810;4.442;2022-10-16T09:40:28;12.95;;;2.25;;
23608;SDS011;11982;50.810;4.442;2022-10-16T09:45:36;4.78;;;1.40;;
23608;SDS011;11982;50.810;4.442;2022-10-16T09:48:10;5.47;;;1.60;;
23608;SDS011;11982;50.810;4.442;2022-10-16T09:50:37;8.70;;;1.70;;
23608;SDS011;11982;50.810;4.442;2022-10-16T09:53:13;11.88;;;1.92;;
23608;SDS011;11982;50.810;4.442;2022-10-16T09:55:49;8.43;;;1.75;;
23608;SDS011;11982;50.810;4.442;2022-10-16T09:58:16;6.05;;;1.60;;
23608;SDS011;11982;50.810;4.442;2022-10-16T10:00:42;6.90;;;2.10;;
23608;SDS011;11982;50.810;4.442;2022-10-16T10:03:23;5.37;;;1.30;;
23608;SDS011;11982;50.810;4.442;2022-10-16T10:06:01;8.30;;;1.60;;
23608;SDS011;11982;50.810;4.442;2022-10-16T10:08:31;7.90;;;1.88;;
23608;SDS011;11982;50.810;4.442;2022-10-16T10:10:56;11.30;;;2.25;;
23608;SDS011;11982;50.810;4.442;2022-10-16T10:13:22;7.88;;;1.63;;
23608;SDS011;11982;50.810;4.442;2022-10-16T10:15:50;5.05;;;1.42;;
23608;SDS011;11982;50.810;4.442;2022-10-16T10:18:20;4.57;;;1.40;;
23608;SDS011;11982;50.810;4.442;2022-10-16T10:21:01;8.95;;;1.40;;
23608;SDS011;11982;50.810;4.442;2022-10-16T10:23:28;4.68;;;1.50;;
23608;SDS011;11982;50.810;4.442;2022-10-16T10:26:00;6.60;;;1.42;;
23608;SDS011;11982;50.810;4.442;2022-10-16T10:28:55;10.88;;;2.30;;
23608;SDS011;11982;50.810;4.442;2022-10-16T10:34:39;4.68;;;1.25;;
23608;SDS011;11982;50.810;4.442;2022-10-16T10:46:02;5.70;;;1.60;;
23608;SDS011;11982;50.810;4.442;2022-10-16T10:51:13;6.38;;;1.65;;
23608;SDS011;11982;50.810;4.442;2022-10-16T10:54:01;9.05;;;1.65;;
23608;SDS011;11982;50.810;4.442;2022-10-16T11:02:05;3.42;;;1.20;;
23608;SDS011;11982;50.810;4.442;2022-10-16T11:07:25;3.47;;;0.95;;
23608;SDS011;11982;50.810;4.442;2022-10-16T11:09:59;13.90;;;1.95;;
23608;SDS011;11982;50.810;4.442;2022-10-16T11:12:38;6.43;;;1.25;;
23608;SDS011;11982;50.810;4.442;2022-10-16T11:15:19;7.38;;;1.60;;
23608;SDS011;11982;50.810;4.442;2022-10-16T11:20:30;4.95;;;1.63;;
23608;SDS011;11982;50.810;4.442;2022-10-16T11:25:56;7.32;;;1.15;;
23608;SDS011;11982;50.810;4.442;2022-10-16T11:28:31;7.93;;;1.25;;
23608;SDS011;11982;50.810;4.442;2022-10-16T11:31:05;6.38;;;1.50;;
23608;SDS011;11982;50.810;4.442;2022-10-16T11:33:40;6.82;;;1.70;;
23608;SDS011;11982;50.810;4.442;2022-10-16T11:36:14;7.43;;;2.55;;
23608;SDS011;11982;50.810;4.442;2022-10-16T11:38:56;8.95;;;3.22;;
23608;SDS011;11982;50.810;4.442;2022-10-16T11:41:34;6.25;;;2.33;;
23608;SDS011;11982;50.810;4.442;2022-10-16T11:46:53;10.20;;;4.20;;
23608;SDS011;11982;50.810;4.442;2022-10-16T11:49:31;3.80;;;1.30;;
23608;SDS011;11982;50.810;4.442;2022-10-16T11:57:52;11.70;;;6.53;;
23608;SDS011;11982;50.810;4.442;2022-10-16T12:00:24;6.63;;;4.05;;
23608;SDS011;11982;50.810;4.442;2022-10-16T12:06:04;14.40;;;5.05;;
23608;SDS011;11982;50.810;4.442;2022-10-16T12:08:44;5.28;;;1.52;;
23608;SDS011;11982;50.810;4.442;2022-10-16T12:14:05;5.70;;;2.30;;
23608;SDS011;11982;50.810;4.442;2022-10-16T12:16:32;5.57;;;3.38;;
23608;SDS011;11982;50.810;4.442;2022-10-16T12:19:12;3.72;;;2.00;;
23608;SDS011;11982;50.810;4.442;2022-10-16T12:21:39;3.25;;;1.10;;
23608;SDS011;11982;50.810;4.442;2022-10-16T12:24:06;7.55;;;1.20;;
23608;SDS011;11982;50.810;4.442;2022-10-16T12:26:44;3.58;;;1.20;;
23608;SDS011;11982;50.810;4.442;2022-10-16T12:29:14;1.73;;;1.27;;
23608;SDS011;11982;50.810;4.442;2022-10-16T12:31:47;4.78;;;1.45;;
23608;SDS011;11982;50.810;4.442;2022-10-16T12:34:48;2.78;;;1.02;;
23608;SDS011;11982;50.810;4.442;2022-10-16T12:37:12;4.65;;;1.33;;
23608;SDS011;11982;50.810;4.442;2022-10-16T12:39:38;2.80;;;0.80;;
23608;SDS011;11982;50.810;4.442;2022-10-16T12:42:05;5.50;;;1.45;;
23608;SDS011;11982;50.810;4.442;2022-10-16T12:44:44;3.50;;;1.08;;
23608;SDS011;11982;50.810;4.442;2022-10-16T12:47:19;6.05;;;1.40;;
23608;SDS011;11982;50.810;4.442;2022-10-16T12:50:00;4.57;;;1.42;;
23608;SDS011;11982;50.810;4.442;2022-10-16T12:52:35;3.45;;;1.30;;
23608;SDS011;11982;50.810;4.442;2022-10-16T12:55:04;6.15;;;1.10;;
23608;SDS011;11982;50.810;4.442;2022-10-16T13:00:25;4.00;;;1.00;;
23608;SDS011;11982;50.810;4.442;2022-10-16T13:03:21;5.78;;;1.00;;
23608;SDS011;11982;50.810;4.442;2022-10-16T13:08:56;3.85;;;1.50;;
23608;SDS011;11982;50.810;4.442;2022-10-16T13:19:44;4.03;;;0.98;;
23608;SDS011;11982;50.810;4.442;2022-10-16T13:22:29;6.38;;;1.00;;
23608;SDS011;11982;50.810;4.442;2022-10-16T13:28:06;5.35;;;1.52;;
23608;SDS011;11982;50.810;4.442;2022-10-16T13:30:40;7.22;;;1.30;;
23608;SDS011;11982;50.810;4.442;2022-10-16T13:35:48;5.95;;;1.10;;
23608;SDS011;11982;50.810;4.442;2022-10-16T13:38:19;6.15;;;1.30;;
23608;SDS011;11982;50.810;4.442;2022-10-16T13:43:18;3.70;;;1.23;;
23608;SDS011;11982;50.810;4.442;2022-10-16T13:45:54;5.40;;;1.30;;
23608;SDS011;11982;50.810;4.442;2022-10-16T13:48:25;3.70;;;1.10;;
23608;SDS011;11982;50.810;4.442;2022-10-16T13:53:36;5.05;;;1.00;;
23608;SDS011;11982;50.810;4.442;2022-10-16T13:56:06;11.55;;;1.95;;
23608;SDS011;11982;50.810;4.442;2022-10-16T13:58:34;4.95;;;0.98;;
23608;SDS011;11982;50.810;4.442;2022-10-16T14:03:28;4.35;;;0.90;;
23608;SDS011;11982;50.810;4.442;2022-10-16T14:05:56;5.63;;;1.27;;
23608;SDS011;11982;50.810;4.442;2022-10-16T14:08:27;3.88;;;1.08;;
23608;SDS011;11982;50.810;4.442;2022-10-16T14:10:55;2.72;;;1.10;;
23608;SDS011;11982;50.810;4.442;2022-10-16T14:13:31;4.10;;;1.02;;
23608;SDS011;11982;50.810;4.442;2022-10-16T14:16:02;5.00;;;1.38;;
23608;SDS011;11982;50.810;4.442;2022-10-16T14:18:32;3.45;;;1.40;;
23608;SDS011;11982;50.810;4.442;2022-10-16T14:21:05;7.10;;;1.50;;
23608;SDS011;11982;50.810;4.442;2022-10-16T14:23:36;3.72;;;1.17;;
23608;SDS011;11982;50.810;4.442;2022-10-16T14:28:38;4.28;;;1.75;;
23608;SDS011;11982;50.810;4.442;2022-10-16T14:33:56;4.93;;;1.50;;
23608;SDS011;11982;50.810;4.442;2022-10-16T14:36:22;11.90;;;1.92;;
23608;SDS011;11982;50.810;4.442;2022-10-16T14:39:00;3.50;;;1.33;;
23608;SDS011;11982;50.810;4.442;2022-10-16T14:41:31;5.00;;;1.70;;
23608;SDS011;11982;50.810;4.442;2022-10-16T14:44:05;5.50;;;1.50;;
23608;SDS011;11982;50.810;4.442;2022-10-16T14:46:38;8.05;;;1.58;;
23608;SDS011;11982;50.810;4.442;2022-10-16T14:51:34;6.57;;;1.50;;
23608;SDS011;11982;50.810;4.442;2022-10-16T14:54:00;6.93;;;1.58;;
23608;SDS011;11982;50.810;4.442;2022-10-16T14:56:29;8.32;;;1.75;;
23608;SDS011;11982;50.810;4.442;2022-10-16T14:58:58;5.82;;;1.98;;
23608;SDS011;11982;50.810;4.442;2022-10-16T15:01:25;5.82;;;1.58;;
23608;SDS011;11982;50.810;4.442;2022-10-16T15:03:51;12.13;;;2.03;;
23608;SDS011;11982;50.810;4.442;2022-10-16T15:06:19;7.88;;;1.80;;
23608;SDS011;11982;50.810;4.442;2022-10-16T15:08:45;9.10;;;2.03;;
23608;SDS011;11982;50.810;4.442;2022-10-16T15:11:12;6.00;;;1.83;;
23608;SDS011;11982;50.810;4.442;2022-10-16T15:13:40;8.90;;;2.42;;
23608;SDS011;11982;50.810;4.442;2022-10-16T15:16:07;3.88;;;1.50;;
23608;SDS011;11982;50.810;4.442;2022-10-16T15:18:38;5.88;;;1.50;;
23608;SDS011;11982;50.810;4.442;2022-10-16T15:21:04;6.72;;;1.52;;
23608;SDS011;11982;50.810;4.442;2022-10-16T15:23:29;8.85;;;1.55;;
23608;SDS011;11982;50.810;4.442;2022-10-16T15:25:55;16.92;;;2.20;;
23608;SDS011;11982;50.810;4.442;2022-10-16T15:28:22;9.18;;;1.70;;
23608;SDS011;11982;50.810;4.442;2022-10-16T15:30:50;10.77;;;2.10;;
23608;SDS011;11982;50.810;4.442;2022-10-16T15:33:18;19.17;;;2.72;;
23608;SDS011;11982;50.810;4.442;2022-10-16T15:35:49;8.95;;;2.97;;
23608;SDS011;11982;50.810;4.442;2022-10-16T15:38:16;7.30;;;4.05;;
23608;SDS011;11982;50.810;4.442;2022-10-16T15:40:43;12.05;;;3.60;;
23608;SDS011;11982;50.810;4.442;2022-10-16T15:43:09;15.38;;;3.25;;
23608;SDS011;11982;50.810;4.442;2022-10-16T15:45:35;23.33;;;3.08;;
23608;SDS011;11982;50.810;4.442;2022-10-16T15:48:01;7.50;;;2.92;;
23608;SDS011;11982;50.810;4.442;2022-10-16T15:50:26;13.15;;;2.75;;
23608;SDS011;11982;50.810;4.442;2022-10-16T15:52:53;7.97;;;2.28;;
23608;SDS011;11982;50.810;4.442;2022-10-16T15:55:18;6.15;;;2.20;;
23608;SDS011;11982;50.810;4.442;2022-10-16T15:57:45;9.60;;;2.90;;
23608;SDS011;11982;50.810;4.442;2022-10-16T16:00:14;8.00;;;2.20;;
23608;SDS011;11982;50.810;4.442;2022-10-16T16:02:42;11.90;;;2.40;;
23608;SDS011;11982;50.810;4.442;2022-10-16T16:05:09;11.07;;;2.20;;
23608;SDS011;11982;50.810;4.442;2022-10-16T16:07:36;10.10;;;2.22;;
23608;SDS011;11982;50.810;4.442;2022-10-16T16:10:03;13.90;;;3.25;;
23608;SDS011;11982;50.810;4.442;2022-10-16T16:12:31;8.18;;;2.28;;
23608;SDS011;11982;50.810;4.442;2022-10-16T16:14:57;8.13;;;2.60;;
23608;SDS011;11982;50.810;4.442;2022-10-16T16:17:22;11.80;;;2.85;;
23608;SDS011;11982;50.810;4.442;2022-10-16T16:19:49;10.07;;;2.60;;
23608;SDS011;11982;50.810;4.442;2022-10-16T16:22:15;11.38;;;2.10;;
23608;SDS011;11982;50.810;4.442;2022-10-16T16:24:41;10.00;;;2.03;;
23608;SDS011;11982;50.810;4.442;2022-10-16T16:27:07;10.63;;;2.60;;
23608;SDS011;11982;50.810;4.442;2022-10-16T16:29:33;12.50;;;2.75;;
23608;SDS011;11982;50.810;4.442;2022-10-16T16:31:59;7.97;;;2.55;;
23608;SDS011;11982;50.810;4.442;2022-10-16T16:34:27;11.85;;;2.47;;
23608;SDS011;11982;50.810;4.442;2022-10-16T16:36:53;12.20;;;1.98;;
23608;SDS011;11982;50.810;4.442;2022-10-16T16:39:19;5.57;;;1.67;;
23608;SDS011;11982;50.810;4.442;2022-10-16T16:41:45;9.85;;;1.77;;
23608;SDS011;11982;50.810;4.442;2022-10-16T16:44:13;9.45;;;2.00;;
23608;SDS011;11982;50.810;4.442;2022-10-16T16:46:40;9.43;;;2.30;;
23608;SDS011;11982;50.810;4.442;2022-10-16T16:49:08;10.25;;;2.22;;
23608;SDS011;11982;50.810;4.442;2022-10-16T16:51:35;9.23;;;2.25;;
23608;SDS011;11982;50.810;4.442;2022-10-16T16:54:02;11.07;;;2.10;;
23608;SDS011;11982;50.810;4.442;2022-10-16T16:56:28;10.73;;;2.35;;
23608;SDS011;11982;50.810;4.442;2022-10-16T16:58:54;8.80;;;2.17;;